This is the latest recevied weather packets stored in our database for station/object SALT. If no packets are shown the sender has not sent any weather packets the latest 1 day(s).
| Time | Temp. | Humidity | Pressure | Rain* | Wind** | Luminosity | Snow |
|---|---|---|---|---|---|---|---|
| 1778004184 | 12.78° C | 49% | 1016 hPa | 0 mm | 0.89 m/s, 345° | - | - |
| 1778003582 | 12.78° C | 47% | 1015.9 hPa | 0 mm | 2.24 m/s, 291° | - | - |
| 1778002979 | 13.33° C | 47% | 1015.8 hPa | 0 mm | 0.89 m/s, 326° | - | - |
| 1778002378 | 12.78° C | 49% | 1015.9 hPa | 0 mm | 3.58 m/s, 293° | - | - |
| 1778001771 | 12.22° C | 48% | 1015.8 hPa | 0 mm | 1.34 m/s, 330° | - | - |
| 1778001170 | 12.22° C | 47% | 1015.7 hPa | 0 mm | 3.13 m/s, 330° | - | - |
| 1778000566 | 12.78° C | 47% | 1015.6 hPa | 0 mm | 1.34 m/s, 325° | - | - |
| 1777999964 | 12.78° C | 45% | 1015.5 hPa | 0 mm | 2.24 m/s, 344° | - | - |
| 1777999360 | 12.22° C | 47% | 1015.6 hPa | 0 mm | 2.24 m/s, 303° | - | - |
| 1777998756 | 12.22° C | 43% | 1015.6 hPa | 0 mm | 3.13 m/s, 303° | - | - |
| 1777998154 | 12.22° C | 43% | 1015.5 hPa | 0 mm | 1.34 m/s, 330° | - | - |
| 1777997551 | 11.67° C | 42% | 1015.4 hPa | 0 mm | 3.13 m/s, 313° | - | - |
| 1777996949 | 11.67° C | 45% | 1015.3 hPa | 0 mm | 0.45 m/s, 324° | - | - |
| 1777995743 | 11.67° C | 50% | 1015.2 hPa | 0 mm | 1.79 m/s, 308° | - | - |
| 1777995138 | 11.11° C | 51% | 1015 hPa | 0 mm | 0.45 m/s, 359° | - | - |
| 1777994536 | 11.11° C | 52% | 1015 hPa | 0 mm | 0.45 m/s, 359° | - | - |
| 1777993933 | 11.11° C | 54% | 1014.9 hPa | 0 mm | 0.89 m/s, 293° | - | - |
| 1777993331 | 10.56° C | 55% | 1014.8 hPa | 0 mm | 0.45 m/s, 285° | - | - |
| 1777992728 | 10.56° C | 64% | 1014.8 hPa | 0 mm | 0.45 m/s, 336° | - | - |
| 1777992124 | 10° C | 64% | 1014.7 hPa | 0 mm | 0.45 m/s, 306° | - | - |
| 1777991520 | 9.44° C | 65% | 1014.6 hPa | 0 mm | 0.89 m/s, 318° | - | - |
| 1777990918 | 9.44° C | 65% | 1014.4 hPa | 0 mm | 0.89 m/s, 285° | - | - |
| 1777990315 | 9.44° C | 65% | 1014.4 hPa | 0 mm | 0.45 m/s, 330° | - | - |
| 1777989759 | 9.44° C | 64% | 1014.4 hPa | 0 mm | 0 m/s | - | - |
| 1777989713 | 9.44° C | 64% | 1014.4 hPa | 0 mm | 0 m/s | - | - |
* Rain latest 24 hours (hover to see other rain measurements)
** Current wind speed in m/s (hover to see current wind gust speed)